»·PEaware :: QXE2303 KYKM-KPDX

QXE2303 :: KYKM-KPDX

FLIGHT INFORMATION

Flight Status: Arrived
Operator:
Horizon Air
More flights by this operator :: More flights under this callsign
Pilot: Doug L. (8712)
Aircraft: DEHAVILLAND DASH 8 400
(DH8D)
More flights by this aircraft type
Origin: KYKM Yakima Air Term/Mcallister
United States
Destination: KPDX Portland Intl
United States
More flights between these airports :: More routes between these airports
Route: GROMO4 GUBSE HHOOD HHOOD4
File this flight plan on PilotEdge
Remarks:
Altitude:
(Current/Filed)
16,000ft
Speed:
(Current/Filed)
330kts
Departed: 04-Mar-19 08:45 AM
Arrived: 04-Mar-19 09:19 AM
Distance/Time
Traveled:
104nm/0:34
Distance/Time
To Go:
Arrived

Flight Plot

Page will automatically refresh every two minutes.

Flight plan parsing failed; only flown route is shown


Map Options




Map Legend


Flown Route
Filed Route
Departure Airport
Arrival Airport
Navaid (VOR, NDB)
Fix

Horizontal Profiles

Position Reports

Time Latitude Longitude Heading Altitude Ground
Speed
04-Mar-19 08:20 46.569762 -120.541248 358 1062ft 0kts
04-Mar-19 08:21 46.569762 -120.541248 358 1062ft 0kts
04-Mar-19 08:22 46.569762 -120.541248 358 1062ft 0kts
04-Mar-19 08:23 46.569762 -120.541248 358 1062ft 0kts
04-Mar-19 08:24 46.569762 -120.541248 358 1062ft 0kts
04-Mar-19 08:25 46.569762 -120.541248 358 1062ft 0kts
04-Mar-19 08:26 46.569762 -120.541248 358 1062ft 0kts
04-Mar-19 08:27 46.569762 -120.541248 358 1062ft 0kts
04-Mar-19 08:28 46.569762 -120.541248 358 1062ft 0kts
04-Mar-19 08:29 46.569762 -120.541248 358 1062ft 0kts
04-Mar-19 08:30 46.569762 -120.541248 358 1062ft 0kts
04-Mar-19 08:31 46.569762 -120.541248 358 1062ft 0kts
04-Mar-19 08:32 46.569762 -120.541248 358 1062ft 0kts
04-Mar-19 08:33 46.569762 -120.541248 358 1062ft 0kts
04-Mar-19 08:34 46.569762 -120.541248 358 1062ft 0kts
04-Mar-19 08:35 46.569762 -120.541248 358 1062ft 0kts
04-Mar-19 08:36 46.569762 -120.541248 358 1062ft 0kts
04-Mar-19 08:37 46.569762 -120.541248 358 1062ft 0kts
04-Mar-19 08:38 46.569762 -120.541248 358 1062ft 0kts
04-Mar-19 08:39 46.569762 -120.541248 358 1062ft 0kts
04-Mar-19 08:40 46.569425 -120.541641 173 1062ft 7kts
04-Mar-19 08:41 46.567693 -120.535592 110 1062ft 20kts
04-Mar-19 08:42 46.566882 -120.532439 111 1062ft 0kts
04-Mar-19 08:43 46.565954 -120.531638 187 1062ft 8kts
04-Mar-19 08:44 46.571893 -120.555780 289 1832ft 131kts
04-Mar-19 08:45 46.566122 -120.611581 253 4628ft 145kts
04-Mar-19 08:46 46.538414 -120.651615 177 7508ft 153kts
04-Mar-19 08:47 46.497212 -120.630261 145 9968ft 194kts
04-Mar-19 08:48 46.444159 -120.561774 133 9959ft 301kts
04-Mar-19 08:49 46.372820 -120.519927 196 9838ft 284kts
04-Mar-19 08:50 46.336401 -120.601404 257 12238ft 241kts
04-Mar-19 08:51 46.299675 -120.674326 225 14914ft 231kts
04-Mar-19 08:52 46.252015 -120.741393 224 15975ft 270kts
04-Mar-19 08:53 46.193443 -120.821783 223 15995ft 310kts
04-Mar-19 08:54 46.129909 -120.908835 224 15999ft 322kts
04-Mar-19 08:55 46.065089 -120.997121 224 16083ft 329kts
04-Mar-19 08:56 45.999189 -121.086469 224 16116ft 324kts
04-Mar-19 08:57 45.935307 -121.172473 225 16126ft 317kts
04-Mar-19 08:58 45.872086 -121.257934 225 16127ft 314kts
04-Mar-19 08:59 45.808692 -121.343095 225 16133ft 312kts
04-Mar-19 09:00 45.745659 -121.427535 225 16136ft 312kts
04-Mar-19 09:01 45.682760 -121.511487 225 16131ft 312kts
04-Mar-19 09:02 45.619579 -121.595812 225 15240ft 318kts
04-Mar-19 09:03 45.558341 -121.677179 226 13817ft 291kts
04-Mar-19 09:04 45.533618 -121.779260 268 12708ft 279kts
04-Mar-19 09:05 45.535260 -121.887764 272 11690ft 274kts
04-Mar-19 09:06 45.545212 -121.994609 285 10788ft 285kts
04-Mar-19 09:07 45.567360 -122.097463 286 10127ft 285kts
04-Mar-19 09:08 45.589482 -122.203081 285 9447ft 280kts
04-Mar-19 09:09 45.617135 -122.304199 296 8770ft 280kts
04-Mar-19 09:10 45.649910 -122.400327 295 7763ft 272kts
04-Mar-19 09:11 45.679493 -122.492790 296 5792ft 249kts
04-Mar-19 09:13 45.705723 -122.577520 296 4074ft 217kts
04-Mar-19 09:14 45.694631 -122.638220 206 4018ft 164kts
04-Mar-19 09:15 45.656885 -122.670782 202 2712ft 139kts
04-Mar-19 09:16 45.623427 -122.672905 129 1159ft 109kts
04-Mar-19 09:17 45.610546 -122.636305 115 652ft 104kts
04-Mar-19 09:18 45.596778 -122.600916 115 115ft 99kts
04-Mar-19 09:19 45.590221 -122.585413 277 37ft 11kts
04-Mar-19 09:20 45.590754 -122.588440 299 37ft 23kts
04-Mar-19 09:21 45.593636 -122.595787 299 37ft 7kts
04-Mar-19 09:22 45.593648 -122.595817 299 37ft 1kts
04-Mar-19 09:23 45.591393 -122.599647 265 38ft 20kts
04-Mar-19 09:24 45.588625 -122.599373 119 37ft 12kts
04-Mar-19 09:25 45.586005 -122.593239 128 37ft 13kts
04-Mar-19 09:26 45.585308 -122.590826 63 37ft 0kts
04-Mar-19 09:27 45.585308 -122.590826 63 37ft 0kts

Navigation Log

Ident Type
Flight plan parsing failed, navigation log unavailable